CheckWX is a tool to help pilots better visualize weather data.  It is not intended as a substitute for an official pre-flight weather briefing.

18:41:27 UTC

KAJG METAR
Mount Carmel Municipal Airport
Mount Carmel, Illinois, USA
Current

6 mins ago

KAJG 261835Z AUTO 03009G14KT 10SM CLR 08/M06 A3041 RMK AO2 T00811064
Observed
Mar-26 @ 18:35 UTC
Wind
  • 030° at 9 KTS
  • Gusting to 14 KTS
Visibility
10 SM
Flight Rules
VFR
Cloud Levels
  • Clear skies
Temperature
C / 46°F
Dewpoint
-6°C / 21°F
Humidity
37%
Altimeter
30.41" Hg
Pressure
1029.81 hPa
Previous

26 mins ago

KAJG 261815Z AUTO 05010KT 10SM CLR 08/M06 A3042 RMK AO2 T00781062
Observed
Mar-26 @ 18:15 UTC
Wind
  • 050° at 10 KTS
Visibility
10 SM
Flight Rules
VFR
Cloud Levels
  • Clear skies
Temperature
C / 46°F
Dewpoint
-6°C / 21°F
Humidity
37%
Altimeter
30.42" Hg
Pressure
1030.11 hPa
Previous

46 mins ago

KAJG 261755Z AUTO 05009G14KT 10SM CLR 08/M07 A3042 RMK AO2 T00751070 10075 20001
Observed
Mar-26 @ 17:55 UTC
Wind
  • 050° at 9 KTS
  • Gusting to 14 KTS
Visibility
10 SM
Flight Rules
VFR
Cloud Levels
  • Clear skies
Temperature
C / 46°F
Dewpoint
-7°C / 19°F
Humidity
34%
Altimeter
30.42" Hg
Pressure
1030.11 hPa